createdAt,value
2023-03-21T00:00:40.222Z,73.27
2023-03-21T00:03:43.337Z,73.44
2023-03-21T00:06:44.905Z,74.02
2023-03-21T00:09:46.308Z,74.90
2023-03-21T00:12:50.276Z,75.02
2023-03-21T00:16:05.615Z,75.80
2023-03-21T00:19:14.315Z,76.34
2023-03-21T00:22:15.866Z,76.18
2023-03-21T00:25:17.256Z,74.96
2023-03-21T00:28:18.643Z,75.24
2023-03-21T00:31:20.207Z,75.99
2023-03-21T00:34:32.051Z,75.24
2023-03-21T00:37:44.688Z,75.63
2023-03-21T00:40:49.148Z,75.48
2023-03-21T00:43:51.898Z,75.82
2023-03-21T00:47:06.159Z,74.79
2023-03-21T00:50:09.709Z,75.37
2023-03-21T00:53:11.201Z,75.21
2023-03-21T00:56:12.685Z,75.56
2023-03-21T00:59:14.095Z,76.26
2023-03-21T01:02:23.041Z,76.34
2023-03-21T01:05:45.313Z,75.89
2023-03-21T01:08:53.162Z,75.18
2023-03-21T01:11:54.994Z,75.90
2023-03-21T01:14:57.593Z,75.46
2023-03-21T01:17:59.081Z,75.98
2023-03-21T01:21:01.361Z,77.86
2023-03-21T01:24:03.074Z,77.66
2023-03-21T01:27:04.596Z,78.20
2023-03-21T01:30:17.421Z,78.39
2023-03-21T01:33:22.465Z,78.30
2023-03-21T01:36:26.509Z,78.68
2023-03-21T01:39:34.798Z,80.21
2023-03-21T01:42:36.266Z,80.53
2023-03-21T01:46:21.239Z,80.75
2023-03-21T01:49:47.726Z,80.43
2023-03-21T01:52:55.005Z,79.43
2023-03-21T01:56:12.272Z,79.88
2023-03-21T01:59:31.710Z,81.12
2023-03-21T02:03:11.323Z,79.96
2023-03-21T02:06:41.302Z,80.02
2023-03-21T02:10:05.142Z,81.01
2023-03-21T02:13:09.736Z,81.22
2023-03-21T02:16:13.817Z,80.55
2023-03-21T02:19:44.530Z,81.59
2023-03-21T02:23:10.253Z,81.45
2023-03-21T02:26:41.950Z,82.22
2023-03-21T02:30:37.531Z,82.94
2023-03-21T02:33:55.004Z,83.19
2023-03-21T02:37:02.373Z,82.51
2023-03-21T02:40:13.450Z,82.79
2023-03-21T02:43:27.966Z,82.69
2023-03-21T02:46:45.578Z,83.68
2023-03-21T02:50:03.912Z,84.14
2023-03-21T02:53:10.580Z,84.23
2023-03-21T02:56:12.522Z,84.36
2023-03-21T02:59:22.509Z,84.29
2023-03-21T03:02:28.363Z,83.92
2023-03-21T03:05:34.182Z,83.75
2023-03-21T03:09:03.055Z,83.97
2023-03-21T03:12:35.441Z,84.54
2023-03-21T03:15:51.453Z,84.57
2023-03-21T03:18:59.945Z,84.82
2023-03-21T03:22:10.241Z,85.00
2023-03-21T03:25:29.568Z,86.15
2023-03-21T03:28:42.453Z,86.91
2023-03-21T03:32:08.515Z,87.18
2023-03-21T03:35:17.494Z,87.03
2023-03-21T03:38:22.585Z,88.22
2023-03-21T03:41:31.829Z,87.26
2023-03-21T03:44:36.910Z,87.75
2023-03-21T03:48:14.821Z,88.03
2023-03-21T03:51:43.219Z,89.31
2023-03-21T03:55:05.952Z,90.00
2023-03-21T03:58:21.587Z,90.48
2023-03-21T04:01:24.520Z,91.09
2023-03-21T04:04:29.049Z,91.81
2023-03-21T04:07:32.573Z,91.90
2023-03-21T04:10:36.385Z,91.24
2023-03-21T04:13:37.996Z,90.58
2023-03-21T04:16:44.277Z,90.53
2023-03-21T04:19:46.268Z,90.47
2023-03-21T04:22:48.595Z,91.50
2023-03-21T04:25:56.982Z,91.86
2023-03-21T04:29:08.989Z,91.31
2023-03-21T04:32:29.045Z,92.49
2023-03-21T04:35:39.697Z,92.43
2023-03-21T04:38:43.102Z,93.00
2023-03-21T04:41:46.599Z,93.86
2023-03-21T04:44:49.070Z,93.01
2023-03-21T04:47:50.559Z,93.29
2023-03-21T04:50:52.342Z,93.67
2023-03-21T04:53:57.415Z,94.06
2023-03-21T04:56:59.874Z,93.00
2023-03-21T05:00:02.828Z,92.87
2023-03-21T05:03:09.033Z,92.45
2023-03-21T05:06:10.676Z,92.54
2023-03-21T05:09:13.522Z,92.48
2023-03-21T05:12:15.638Z,93.66
2023-03-21T05:15:17.135Z,93.25
2023-03-21T05:18:24.660Z,92.98
2023-03-21T05:21:42.182Z,93.17
2023-03-21T05:24:56.652Z,92.73
2023-03-21T05:28:21.031Z,93.44
2023-03-21T05:31:23.321Z,93.84
2023-03-21T05:34:29.718Z,92.19
2023-03-21T05:37:31.848Z,91.97
2023-03-21T05:40:33.380Z,92.61
2023-03-21T05:43:35.947Z,94.23
2023-03-21T05:46:37.808Z,94.14
2023-03-21T05:49:40.508Z,92.84
2023-03-21T05:52:42.845Z,93.56
2023-03-21T05:55:48.152Z,93.38
2023-03-21T05:59:04.046Z,93.50
2023-03-21T06:02:09.689Z,92.77
2023-03-21T06:05:11.218Z,93.69
2023-03-21T06:08:13.330Z,91.38
2023-03-21T06:11:25.812Z,91.40
2023-03-21T06:14:36.027Z,90.82
2023-03-21T06:18:00.331Z,90.13
2023-03-21T06:21:01.974Z,90.03
2023-03-21T06:24:03.696Z,90.09
2023-03-21T06:27:06.073Z,89.09
2023-03-21T06:30:20.945Z,88.80
2023-03-21T06:33:36.301Z,89.63
2023-03-21T06:36:38.059Z,88.57
2023-03-21T06:39:39.526Z,88.62
2023-03-21T06:42:40.987Z,89.25
2023-03-21T06:45:46.020Z,87.83
2023-03-21T06:48:47.497Z,87.50
2023-03-21T06:51:49.646Z,88.08
2023-03-21T06:54:54.509Z,88.69
2023-03-21T06:57:57.467Z,86.42
2023-03-21T07:01:03.080Z,85.55
2023-03-21T07:04:07.447Z,86.77
2023-03-21T07:07:09.450Z,87.29
2023-03-21T07:10:11.634Z,88.38
2023-03-21T07:13:21.348Z,87.69
2023-03-21T07:16:29.429Z,87.46
2023-03-21T07:19:31.160Z,86.99
2023-03-21T07:22:34.724Z,86.58
2023-03-21T07:25:36.554Z,86.84
2023-03-21T07:28:38.268Z,86.65
2023-03-21T07:31:39.967Z,86.45
2023-03-21T07:34:41.984Z,86.17
2023-03-21T07:37:43.705Z,85.18
2023-03-21T07:40:49.746Z,85.39
2023-03-21T07:43:51.412Z,84.78
2023-03-21T07:46:53.400Z,83.01
2023-03-21T07:49:54.869Z,81.45
2023-03-21T07:52:56.399Z,79.09
2023-03-21T07:55:57.824Z,77.81
2023-03-21T07:58:59.460Z,77.39
2023-03-21T08:02:00.954Z,77.21
2023-03-21T08:05:03.914Z,77.41
2023-03-21T08:08:05.999Z,76.98
2023-03-21T08:11:07.805Z,76.59
2023-03-21T08:14:09.219Z,74.98
2023-03-21T08:17:10.718Z,72.11
2023-03-21T08:20:22.146Z,72.86
2023-03-21T08:23:24.675Z,71.85
2023-03-21T08:26:26.358Z,70.66
2023-03-21T08:29:28.113Z,71.78
2023-03-21T08:32:30.220Z,71.08
2023-03-21T08:35:31.667Z,72.39
2023-03-21T08:38:34.545Z,72.37
2023-03-21T08:41:37.457Z,71.00
2023-03-21T08:44:39.658Z,72.14
2023-03-21T08:47:41.100Z,71.77
2023-03-21T08:50:43.270Z,70.61
2023-03-21T08:53:44.652Z,69.79
2023-03-21T08:56:46.145Z,69.57
2023-03-21T08:59:47.525Z,68.93
2023-03-21T09:02:51.373Z,68.81
2023-03-21T09:05:54.197Z,69.05
2023-03-21T09:08:56.809Z,68.58
2023-03-21T09:11:58.459Z,68.09
2023-03-21T09:15:02.388Z,65.98
2023-03-21T09:18:12.975Z,67.49
2023-03-21T09:21:18.357Z,66.35
2023-03-21T09:24:20.561Z,65.31
2023-03-21T09:27:23.134Z,64.87
2023-03-21T09:30:26.434Z,63.77
2023-03-21T09:33:29.436Z,62.96
2023-03-21T09:36:34.880Z,62.87
2023-03-21T09:39:37.155Z,64.31
2023-03-21T09:43:02.822Z,64.24
2023-03-21T09:46:19.337Z,63.75
2023-03-21T09:49:40.439Z,62.92
2023-03-21T09:52:51.833Z,63.00
2023-03-21T09:55:54.317Z,62.19
2023-03-21T09:58:59.266Z,61.98
2023-03-21T10:02:01.729Z,62.83
2023-03-21T10:05:12.016Z,62.41
2023-03-21T10:08:36.449Z,61.17
2023-03-21T10:11:48.613Z,59.92
2023-03-21T10:14:55.953Z,60.24
2023-03-21T10:18:14.060Z,60.99
2023-03-21T10:21:47.345Z,59.01
2023-03-21T10:24:44.653Z,60.42
2023-03-21T10:27:47.587Z,61.44
2023-03-21T10:30:52.941Z,61.30
2023-03-21T10:33:57.708Z,60.10
2023-03-21T10:37:02.322Z,60.20
2023-03-21T10:40:06.165Z,60.73
2023-03-21T10:43:40.722Z,60.86
2023-03-21T10:46:54.155Z,58.99
2023-03-21T10:50:07.436Z,60.61
2023-03-21T10:53:20.698Z,59.20
2023-03-21T10:56:28.994Z,59.37
2023-03-21T10:59:39.084Z,59.65
2023-03-21T11:02:41.295Z,58.84
2023-03-21T11:05:43.384Z,59.53
2023-03-21T11:08:53.961Z,58.60
2023-03-21T11:12:03.569Z,58.96
2023-03-21T11:15:33.084Z,58.21
2023-03-21T11:18:43.478Z,58.29
2023-03-21T11:21:45.383Z,58.68
2023-03-21T11:24:51.486Z,59.23
2023-03-21T11:27:54.854Z,59.21
2023-03-21T11:30:58.304Z,58.91
2023-03-21T11:34:07.095Z,57.34
2023-03-21T11:37:20.733Z,57.99
2023-03-21T11:40:33.327Z,58.47
2023-03-21T11:43:39.605Z,59.69
2023-03-21T11:46:41.310Z,59.25
2023-03-21T11:49:42.757Z,58.49
2023-03-21T11:53:20.311Z,57.71
2023-03-21T11:56:42.456Z,56.23
2023-03-21T12:00:14.417Z,55.69
2023-03-21T12:03:47.231Z,54.50
2023-03-21T12:06:56.098Z,54.48
2023-03-21T12:10:20.001Z,53.98
2023-03-21T12:13:36.591Z,53.37
2023-03-21T12:16:46.950Z,53.46
2023-03-21T12:20:09.903Z,53.83
2023-03-21T12:23:55.220Z,54.04
2023-03-21T12:27:04.521Z,55.07
2023-03-21T12:30:18.572Z,54.33
2023-03-21T12:33:41.893Z,53.71
2023-03-21T12:37:02.128Z,53.74
2023-03-21T12:40:28.744Z,52.74
2023-03-21T12:43:54.012Z,52.77
2023-03-21T12:47:07.606Z,52.35
2023-03-21T12:50:18.346Z,51.05
2023-03-21T12:53:36.020Z,51.27
2023-03-21T12:56:46.974Z,51.51
2023-03-21T13:00:13.733Z,50.93
2023-03-21T13:03:38.966Z,51.26
2023-03-21T13:06:48.178Z,50.33
2023-03-21T13:09:51.163Z,49.71
2023-03-21T13:13:22.718Z,50.00
2023-03-21T13:17:00.547Z,49.89
2023-03-21T13:20:20.136Z,50.75
2023-03-21T13:23:23.536Z,50.88
2023-03-21T13:26:42.078Z,50.79
2023-03-21T13:30:02.435Z,50.66
2023-03-21T13:33:13.507Z,50.42
2023-03-21T13:36:28.416Z,50.29
2023-03-21T13:39:30.981Z,50.90
2023-03-21T13:42:33.630Z,50.65
2023-03-21T13:45:53.865Z,50.34
2023-03-21T13:48:59.516Z,50.11
2023-03-21T13:52:23.061Z,50.93
2023-03-21T13:55:28.442Z,50.46
2023-03-21T13:58:37.913Z,50.89
2023-03-21T14:01:58.162Z,50.71
2023-03-21T14:05:17.554Z,50.72
2023-03-21T14:08:28.048Z,51.10
2023-03-21T14:11:38.383Z,50.08
2023-03-21T14:14:51.160Z,49.85
2023-03-21T14:18:16.050Z,49.09
2023-03-21T14:21:30.417Z,49.23
2023-03-21T14:24:32.425Z,49.22
2023-03-21T14:27:37.654Z,48.47
2023-03-21T14:30:41.274Z,48.55
2023-03-21T14:33:49.463Z,48.91
2023-03-21T14:36:58.110Z,48.77
2023-03-21T14:40:11.368Z,48.20
2023-03-21T14:43:12.909Z,47.41
2023-03-21T14:46:14.393Z,47.95
2023-03-21T14:49:26.760Z,49.66
2023-03-21T14:52:34.057Z,50.06
2023-03-21T14:55:42.337Z,51.79
2023-03-21T14:58:46.992Z,52.34
2023-03-21T15:01:51.060Z,52.46
2023-03-21T15:04:57.027Z,56.18
2023-03-21T15:08:01.231Z,59.49
2023-03-21T15:11:07.887Z,59.03
2023-03-21T15:14:27.289Z,61.59
2023-03-21T15:17:29.294Z,61.02
2023-03-21T15:20:36.061Z,61.62
2023-03-21T15:23:44.483Z,61.33
2023-03-21T15:26:48.698Z,63.02
2023-03-21T15:29:54.107Z,67.54
2023-03-21T15:32:56.837Z,67.09
2023-03-21T15:36:00.210Z,68.44
2023-03-21T15:39:05.556Z,67.59
2023-03-21T15:42:24.656Z,66.97
2023-03-21T15:45:27.744Z,67.66
2023-03-21T15:48:34.740Z,65.63
2023-03-21T15:51:36.430Z,64.11
2023-03-21T15:54:47.974Z,65.11
2023-03-21T15:57:50.048Z,67.09
2023-03-21T16:00:55.454Z,66.65
2023-03-21T16:04:02.421Z,70.41
2023-03-21T16:07:16.940Z,71.75
2023-03-21T16:10:31.975Z,71.23
2023-03-21T16:13:33.467Z,72.26
2023-03-21T16:16:35.710Z,70.48
2023-03-21T16:19:37.119Z,66.72
2023-03-21T16:22:38.494Z,67.49
2023-03-21T16:25:41.015Z,67.32
2023-03-21T16:28:43.577Z,67.55
2023-03-21T16:31:47.599Z,66.08
2023-03-21T16:34:49.149Z,64.15
2023-03-21T16:37:50.762Z,62.20
2023-03-21T16:40:52.210Z,63.15
2023-03-21T16:43:53.919Z,63.57
2023-03-21T16:46:55.403Z,63.93
2023-03-21T16:49:57.107Z,65.74
2023-03-21T16:52:59.047Z,68.83
2023-03-21T16:56:02.847Z,69.75
2023-03-21T16:59:10.498Z,71.54
2023-03-21T17:02:14.771Z,71.88
2023-03-21T17:05:16.265Z,72.56
2023-03-21T17:08:19.572Z,73.21
2023-03-21T17:11:23.150Z,76.23
2023-03-21T17:14:24.527Z,76.41
2023-03-21T17:17:25.964Z,77.42
2023-03-21T17:20:32.802Z,81.92
2023-03-21T17:23:34.280Z,82.04
2023-03-21T17:26:36.301Z,82.14
2023-03-21T17:29:37.772Z,85.38
2023-03-21T17:32:39.192Z,82.50
2023-03-21T17:35:40.681Z,83.90
2023-03-21T17:38:42.836Z,83.62
2023-03-21T17:41:44.248Z,84.16
2023-03-21T17:44:46.479Z,83.52
2023-03-21T17:47:48.371Z,84.72
2023-03-21T17:50:49.825Z,86.16
2023-03-21T17:53:51.621Z,84.43
2023-03-21T17:56:54.615Z,85.47
2023-03-21T17:59:56.786Z,85.49
2023-03-21T18:02:58.491Z,83.29
2023-03-21T18:06:00.119Z,81.23
2023-03-21T18:09:06.799Z,79.56
2023-03-21T18:12:08.435Z,78.90
2023-03-21T18:15:14.367Z,78.48
2023-03-21T18:18:17.000Z,80.25
2023-03-21T18:21:20.343Z,79.51
2023-03-21T18:24:21.909Z,78.95
2023-03-21T18:27:23.347Z,77.06
2023-03-21T18:30:47.406Z,76.94
2023-03-21T18:33:48.378Z,76.85
2023-03-21T18:36:49.838Z,77.61
2023-03-21T18:39:51.309Z,80.05
2023-03-21T18:43:45.448Z,84.28
2023-03-21T18:46:15.635Z,85.31
2023-03-21T18:52:38.878Z,90.57
2023-03-21T18:55:46.054Z,91.34
2023-03-21T18:58:49.122Z,91.55
2023-03-21T19:01:51.105Z,93.92
2023-03-21T19:04:52.674Z,95.18
2023-03-21T19:07:54.113Z,95.27
2023-03-21T19:10:59.576Z,95.49
2023-03-21T19:14:02.845Z,94.73
2023-03-21T19:20:25.765Z,90.38
2023-03-21T19:23:39.911Z,88.50
2023-03-21T19:26:48.657Z,85.34
2023-03-21T19:30:06.591Z,85.31
2023-03-21T19:33:11.534Z,87.20
2023-03-21T19:36:21.607Z,85.58
2023-03-21T19:39:24.966Z,86.78
2023-03-21T19:42:28.646Z,86.81
2023-03-21T19:45:32.001Z,86.75
2023-03-21T19:48:33.721Z,88.08
2023-03-21T19:51:35.582Z,88.41
2023-03-21T19:54:37.439Z,88.50
2023-03-21T19:57:38.833Z,90.14
2023-03-21T20:00:40.493Z,93.73
2023-03-21T20:03:44.107Z,94.18
2023-03-21T20:06:45.679Z,94.20
2023-03-21T20:09:52.571Z,98.86
2023-03-21T20:12:56.124Z,99.36
2023-03-21T20:16:03.488Z,97.13
2023-03-21T20:19:08.663Z,98.05
2023-03-21T20:22:21.912Z,98.24
2023-03-21T20:25:29.555Z,97.76
2023-03-21T20:28:31.104Z,98.70
2023-03-21T20:31:32.874Z,96.66
2023-03-21T20:34:36.815Z,97.88
2023-03-21T20:37:39.622Z,99.18
2023-03-21T20:40:41.193Z,99.97
2023-03-21T20:47:05.466Z,99.52
2023-03-21T20:50:08.735Z,100.00
2023-03-21T20:53:10.261Z,100.00
2023-03-21T20:56:11.733Z,100.00
2023-03-21T20:59:25.653Z,100.00
2023-03-21T21:02:28.198Z,100.00
2023-03-21T21:05:34.314Z,100.00
2023-03-21T21:08:36.392Z,100.00
2023-03-21T21:14:59.485Z,100.00
2023-03-21T21:18:06.021Z,100.00
2023-03-21T21:21:08.978Z,100.00
2023-03-21T21:24:10.912Z,100.00
2023-03-21T21:27:16.401Z,100.00
2023-03-21T21:30:18.492Z,99.81
2023-03-21T21:33:21.039Z,100.00
2023-03-21T21:36:22.633Z,100.00
2023-03-21T21:39:25.139Z,100.00
2023-03-21T21:42:26.869Z,100.00
2023-03-21T21:45:28.472Z,100.00
2023-03-21T21:48:29.974Z,100.00
2023-03-21T21:51:33.935Z,100.00
2023-03-21T21:54:35.823Z,100.00
2023-03-21T21:57:37.425Z,100.00
2023-03-21T22:00:39.562Z,100.00
2023-03-21T22:03:41.183Z,100.00
2023-03-21T22:06:43.114Z,100.00
2023-03-21T22:09:44.775Z,100.00
2023-03-21T22:12:46.256Z,99.52
2023-03-21T22:15:47.861Z,100.00
2023-03-21T22:18:49.256Z,100.00
2023-03-21T22:21:51.230Z,100.00
2023-03-21T22:24:56.127Z,100.00
2023-03-21T22:27:58.078Z,100.00
2023-03-21T22:31:07.721Z,100.00
2023-03-21T22:34:09.446Z,100.00
2023-03-21T22:37:10.984Z,100.00
2023-03-21T22:40:15.904Z,100.00
2023-03-21T22:43:17.296Z,100.00
2023-03-21T22:46:18.741Z,100.00
2023-03-21T22:49:20.311Z,100.00
2023-03-21T22:52:22.839Z,100.00
2023-03-21T22:55:24.291Z,100.00
2023-03-21T22:58:25.810Z,100.00
2023-03-21T23:01:27.485Z,100.00
2023-03-21T23:04:29.006Z,100.00
2023-03-21T23:07:30.531Z,99.91
2023-03-21T23:10:31.940Z,98.72
2023-03-21T23:13:33.502Z,98.80
2023-03-21T23:16:38.406Z,99.47
2023-03-21T23:19:41.158Z,99.36
2023-03-21T23:22:42.722Z,100.00
2023-03-21T23:25:45.048Z,100.00
2023-03-21T23:28:47.973Z,100.00
2023-03-21T23:31:49.391Z,100.00
2023-03-21T23:34:50.970Z,100.00
2023-03-21T23:37:52.750Z,100.00
2023-03-21T23:40:54.378Z,100.00
2023-03-21T23:43:55.777Z,100.00
2023-03-21T23:46:57.238Z,100.00
2023-03-21T23:49:58.621Z,100.00
2023-03-21T23:53:00.108Z,100.00
2023-03-21T23:56:01.603Z,100.00
2023-03-21T23:59:03.495Z,100.00
